sensor_id;sensor_type;location;lat;lon;timestamp;temperature;humidity
74488;DHT22;63019;51.080;13.642;2022-09-03T00:00:59;14.80;55.70
74488;DHT22;63019;51.080;13.642;2022-09-03T00:03:33;14.80;56.30
74488;DHT22;63019;51.080;13.642;2022-09-03T00:04:50;14.80;54.80
74488;DHT22;63019;51.080;13.642;2022-09-03T00:06:13;14.80;54.20
74488;DHT22;63019;51.080;13.642;2022-09-03T00:07:29;14.70;56.70
74488;DHT22;63019;51.080;13.642;2022-09-03T00:08:44;14.70;55.40
74488;DHT22;63019;51.080;13.642;2022-09-03T00:09:50;14.70;56.50
74488;DHT22;63019;51.080;13.642;2022-09-03T00:11:19;14.70;54.60
74488;DHT22;63019;51.080;13.642;2022-09-03T00:12:28;14.70;55.80
74488;DHT22;63019;51.080;13.642;2022-09-03T00:13:41;14.70;55.00
74488;DHT22;63019;51.080;13.642;2022-09-03T00:15:00;14.60;55.10
74488;DHT22;63019;51.080;13.642;2022-09-03T00:16:07;14.60;56.70
74488;DHT22;63019;51.080;13.642;2022-09-03T00:17:18;14.60;55.60
74488;DHT22;63019;51.080;13.642;2022-09-03T00:18:27;14.60;54.80
74488;DHT22;63019;51.080;13.642;2022-09-03T00:19:34;14.60;55.10
74488;DHT22;63019;51.080;13.642;2022-09-03T00:20:48;14.70;54.80
74488;DHT22;63019;51.080;13.642;2022-09-03T00:21:55;14.70;55.40
74488;DHT22;63019;51.080;13.642;2022-09-03T00:23:00;14.60;55.40
74488;DHT22;63019;51.080;13.642;2022-09-03T00:24:07;14.60;55.80
74488;DHT22;63019;51.080;13.642;2022-09-03T00:25:25;14.60;55.50
74488;DHT22;63019;51.080;13.642;2022-09-03T00:26:32;14.60;55.40
74488;DHT22;63019;51.080;13.642;2022-09-03T00:27:38;14.60;55.60
74488;DHT22;63019;51.080;13.642;2022-09-03T00:28:41;14.60;55.90
74488;DHT22;63019;51.080;13.642;2022-09-03T00:29:54;14.60;56.10
74488;DHT22;63019;51.080;13.642;2022-09-03T00:31:11;14.60;56.00
74488;DHT22;63019;51.080;13.642;2022-09-03T00:32:23;14.60;57.50
74488;DHT22;63019;51.080;13.642;2022-09-03T00:33:29;14.50;57.20
74488;DHT22;63019;51.080;13.642;2022-09-03T00:34:35;14.50;57.40
74488;DHT22;63019;51.080;13.642;2022-09-03T00:35:50;14.40;57.50
74488;DHT22;63019;51.080;13.642;2022-09-03T00:36:54;14.30;57.60
74488;DHT22;63019;51.080;13.642;2022-09-03T00:37:56;14.30;57.80
74488;DHT22;63019;51.080;13.642;2022-09-03T00:38:58;14.30;57.90
74488;DHT22;63019;51.080;13.642;2022-09-03T00:40:00;14.30;57.80
74488;DHT22;63019;51.080;13.642;2022-09-03T00:45:57;14.10;58.20
74488;DHT22;63019;51.080;13.642;2022-09-03T00:48:29;14.00;58.50
74488;DHT22;63019;51.080;13.642;2022-09-03T00:49:45;14.00;59.20
74488;DHT22;63019;51.080;13.642;2022-09-03T00:53:41;13.90;59.70
74488;DHT22;63019;51.080;13.642;2022-09-03T00:56:36;13.90;60.40
74488;DHT22;63019;51.080;13.642;2022-09-03T00:59:13;13.80;60.70
74488;DHT22;63019;51.080;13.642;2022-09-03T01:00:20;13.80;60.90
74488;DHT22;63019;51.080;13.642;2022-09-03T01:10:15;13.50;60.80
74488;DHT22;63019;51.080;13.642;2022-09-03T01:12:02;13.50;61.00
74488;DHT22;63019;51.080;13.642;2022-09-03T01:13:17;13.40;61.10
74488;DHT22;63019;51.080;13.642;2022-09-03T01:15:58;13.50;61.20
74488;DHT22;63019;51.080;13.642;2022-09-03T01:18:27;13.40;60.60
74488;DHT22;63019;51.080;13.642;2022-09-03T01:21:17;13.40;60.60
74488;DHT22;63019;51.080;13.642;2022-09-03T01:24:24;13.40;60.60
74488;DHT22;63019;51.080;13.642;2022-09-03T01:25:52;13.40;60.70
74488;DHT22;63019;51.080;13.642;2022-09-03T01:27:07;13.40;61.00
74488;DHT22;63019;51.080;13.642;2022-09-03T01:29:35;13.30;61.20
74488;DHT22;63019;51.080;13.642;2022-09-03T01:30:42;13.30;61.50
74488;DHT22;63019;51.080;13.642;2022-09-03T01:38:16;13.20;61.50
74488;DHT22;63019;51.080;13.642;2022-09-03T01:39:35;13.20;61.90
74488;DHT22;63019;51.080;13.642;2022-09-03T01:40:46;13.20;62.00
74488;DHT22;63019;51.080;13.642;2022-09-03T01:42:24;13.10;62.00
74488;DHT22;63019;51.080;13.642;2022-09-03T01:43:39;13.10;62.40
74488;DHT22;63019;51.080;13.642;2022-09-03T01:46:22;13.10;62.00
74488;DHT22;63019;51.080;13.642;2022-09-03T01:50:21;13.10;62.00
74488;DHT22;63019;51.080;13.642;2022-09-03T01:51:28;13.10;62.30
74488;DHT22;63019;51.080;13.642;2022-09-03T01:52:50;13.20;62.20
74488;DHT22;63019;51.080;13.642;2022-09-03T01:58:51;13.20;62.30
74488;DHT22;63019;51.080;13.642;2022-09-03T02:01:24;13.10;62.10
74488;DHT22;63019;51.080;13.642;2022-09-03T02:02:27;13.10;62.10
74488;DHT22;63019;51.080;13.642;2022-09-03T02:03:39;13.10;61.50
74488;DHT22;63019;51.080;13.642;2022-09-03T02:06:03;13.00;62.30
74488;DHT22;63019;51.080;13.642;2022-09-03T02:07:06;13.00;61.40
74488;DHT22;63019;51.080;13.642;2022-09-03T02:08:08;12.90;61.60
74488;DHT22;63019;51.080;13.642;2022-09-03T02:09:12;12.90;61.20
74488;DHT22;63019;51.080;13.642;2022-09-03T02:10:17;12.90;61.70
74488;DHT22;63019;51.080;13.642;2022-09-03T02:11:20;12.90;61.50
74488;DHT22;63019;51.080;13.642;2022-09-03T02:12:22;12.90;61.80
74488;DHT22;63019;51.080;13.642;2022-09-03T02:13:28;12.90;61.30
74488;DHT22;63019;51.080;13.642;2022-09-03T02:14:31;12.80;61.30
74488;DHT22;63019;51.080;13.642;2022-09-03T02:15:36;12.80;61.40
74488;DHT22;63019;51.080;13.642;2022-09-03T02:16:38;12.80;61.60
74488;DHT22;63019;51.080;13.642;2022-09-03T02:17:42;12.80;61.60
74488;DHT22;63019;51.080;13.642;2022-09-03T02:18:54;12.80;61.70
74488;DHT22;63019;51.080;13.642;2022-09-03T02:19:57;12.70;61.10
74488;DHT22;63019;51.080;13.642;2022-09-03T02:20:59;12.70;61.30
74488;DHT22;63019;51.080;13.642;2022-09-03T02:22:02;12.70;61.90
74488;DHT22;63019;51.080;13.642;2022-09-03T02:23:05;12.60;61.70
74488;DHT22;63019;51.080;13.642;2022-09-03T02:24:07;12.60;62.10
74488;DHT22;63019;51.080;13.642;2022-09-03T02:25:09;12.60;62.30
74488;DHT22;63019;51.080;13.642;2022-09-03T02:26:15;12.50;62.40
74488;DHT22;63019;51.080;13.642;2022-09-03T02:27:18;12.50;62.50
74488;DHT22;63019;51.080;13.642;2022-09-03T02:28:21;12.50;62.90
74488;DHT22;63019;51.080;13.642;2022-09-03T02:29:23;12.50;62.30
74488;DHT22;63019;51.080;13.642;2022-09-03T02:30:27;12.50;62.50
74488;DHT22;63019;51.080;13.642;2022-09-03T02:31:29;12.50;62.80
74488;DHT22;63019;51.080;13.642;2022-09-03T02:32:31;12.50;62.80
74488;DHT22;63019;51.080;13.642;2022-09-03T02:33:38;12.50;62.90
74488;DHT22;63019;51.080;13.642;2022-09-03T02:34:41;12.50;63.40
74488;DHT22;63019;51.080;13.642;2022-09-03T02:35:44;12.50;63.30
74488;DHT22;63019;51.080;13.642;2022-09-03T02:36:46;12.50;62.80
74488;DHT22;63019;51.080;13.642;2022-09-03T02:37:49;12.50;63.10
74488;DHT22;63019;51.080;13.642;2022-09-03T02:38:51;12.50;62.50
74488;DHT22;63019;51.080;13.642;2022-09-03T02:39:52;12.50;63.40
74488;DHT22;63019;51.080;13.642;2022-09-03T02:40:55;12.50;63.40
74488;DHT22;63019;51.080;13.642;2022-09-03T02:41:57;12.50;64.10
74488;DHT22;63019;51.080;13.642;2022-09-03T02:42:59;12.50;63.70
74488;DHT22;63019;51.080;13.642;2022-09-03T02:44:07;12.40;64.00
74488;DHT22;63019;51.080;13.642;2022-09-03T02:45:26;12.40;64.10
74488;DHT22;63019;51.080;13.642;2022-09-03T02:46:33;12.30;66.00
74488;DHT22;63019;51.080;13.642;2022-09-03T02:47:39;12.40;64.60
74488;DHT22;63019;51.080;13.642;2022-09-03T02:48:43;12.30;64.50
74488;DHT22;63019;51.080;13.642;2022-09-03T02:49:47;12.30;64.90
74488;DHT22;63019;51.080;13.642;2022-09-03T02:50:49;12.30;64.80
74488;DHT22;63019;51.080;13.642;2022-09-03T02:52:00;12.30;64.10
74488;DHT22;63019;51.080;13.642;2022-09-03T02:53:02;12.30;65.20
74488;DHT22;63019;51.080;13.642;2022-09-03T02:54:04;12.30;64.10
74488;DHT22;63019;51.080;13.642;2022-09-03T02:55:06;12.40;64.80
74488;DHT22;63019;51.080;13.642;2022-09-03T02:56:08;12.30;64.90
74488;DHT22;63019;51.080;13.642;2022-09-03T02:57:13;12.40;64.50
74488;DHT22;63019;51.080;13.642;2022-09-03T02:58:15;12.30;64.40
74488;DHT22;63019;51.080;13.642;2022-09-03T02:59:17;12.30;64.70
74488;DHT22;63019;51.080;13.642;2022-09-03T03:00:18;12.30;64.30
74488;DHT22;63019;51.080;13.642;2022-09-03T03:01:20;12.40;64.50
74488;DHT22;63019;51.080;13.642;2022-09-03T03:02:24;12.40;64.50
74488;DHT22;63019;51.080;13.642;2022-09-03T03:03:26;12.40;64.60
74488;DHT22;63019;51.080;13.642;2022-09-03T03:04:29;12.40;64.80
74488;DHT22;63019;51.080;13.642;2022-09-03T03:06:46;12.30;65.80
74488;DHT22;63019;51.080;13.642;2022-09-03T03:07:51;12.30;64.70
74488;DHT22;63019;51.080;13.642;2022-09-03T03:08:53;12.30;65.10
74488;DHT22;63019;51.080;13.642;2022-09-03T03:09:56;12.30;64.70
74488;DHT22;63019;51.080;13.642;2022-09-03T03:10:58;12.30;64.80
74488;DHT22;63019;51.080;13.642;2022-09-03T03:12:01;12.30;64.30
74488;DHT22;63019;51.080;13.642;2022-09-03T03:13:03;12.40;64.40
74488;DHT22;63019;51.080;13.642;2022-09-03T03:14:04;12.30;64.40
74488;DHT22;63019;51.080;13.642;2022-09-03T03:15:06;12.30;64.20
74488;DHT22;63019;51.080;13.642;2022-09-03T03:16:09;12.40;64.90
74488;DHT22;63019;51.080;13.642;2022-09-03T03:17:10;12.30;65.00
74488;DHT22;63019;51.080;13.642;2022-09-03T03:18:12;12.30;64.80
74488;DHT22;63019;51.080;13.642;2022-09-03T03:19:14;12.30;65.10
74488;DHT22;63019;51.080;13.642;2022-09-03T03:20:16;12.30;64.60
74488;DHT22;63019;51.080;13.642;2022-09-03T03:21:18;12.30;64.90
74488;DHT22;63019;51.080;13.642;2022-09-03T03:22:20;12.30;64.40
74488;DHT22;63019;51.080;13.642;2022-09-03T03:23:21;12.30;64.40
74488;DHT22;63019;51.080;13.642;2022-09-03T03:24:23;12.20;64.90
74488;DHT22;63019;51.080;13.642;2022-09-03T03:25:25;12.20;65.10
74488;DHT22;63019;51.080;13.642;2022-09-03T03:26:27;12.20;65.00
74488;DHT22;63019;51.080;13.642;2022-09-03T03:27:29;12.30;65.00
74488;DHT22;63019;51.080;13.642;2022-09-03T03:28:31;12.30;65.30
74488;DHT22;63019;51.080;13.642;2022-09-03T03:29:35;12.30;65.60
74488;DHT22;63019;51.080;13.642;2022-09-03T03:30:38;12.20;65.20
74488;DHT22;63019;51.080;13.642;2022-09-03T03:31:40;12.20;65.20
74488;DHT22;63019;51.080;13.642;2022-09-03T03:32:42;12.20;65.80
74488;DHT22;63019;51.080;13.642;2022-09-03T03:33:59;12.10;65.90
74488;DHT22;63019;51.080;13.642;2022-09-03T03:35:00;12.10;67.10
74488;DHT22;63019;51.080;13.642;2022-09-03T03:37:07;12.10;65.80
74488;DHT22;63019;51.080;13.642;2022-09-03T03:38:09;12.10;66.20
74488;DHT22;63019;51.080;13.642;2022-09-03T03:39:11;12.10;66.40
74488;DHT22;63019;51.080;13.642;2022-09-03T03:40:13;12.10;66.20
74488;DHT22;63019;51.080;13.642;2022-09-03T03:41:18;12.10;66.30
74488;DHT22;63019;51.080;13.642;2022-09-03T03:42:20;12.00;66.40
74488;DHT22;63019;51.080;13.642;2022-09-03T03:43:21;12.10;66.50
74488;DHT22;63019;51.080;13.642;2022-09-03T03:44:23;12.00;66.60
74488;DHT22;63019;51.080;13.642;2022-09-03T03:45:25;12.00;66.90
74488;DHT22;63019;51.080;13.642;2022-09-03T03:46:37;12.00;67.10
74488;DHT22;63019;51.080;13.642;2022-09-03T03:47:39;12.00;67.60
74488;DHT22;63019;51.080;13.642;2022-09-03T03:48:41;11.90;67.20
74488;DHT22;63019;51.080;13.642;2022-09-03T03:49:43;11.90;67.60
74488;DHT22;63019;51.080;13.642;2022-09-03T03:50:44;11.90;67.60
74488;DHT22;63019;51.080;13.642;2022-09-03T03:51:47;11.80;68.00
74488;DHT22;63019;51.080;13.642;2022-09-03T03:52:49;11.80;67.90
74488;DHT22;63019;51.080;13.642;2022-09-03T03:53:55;11.80;67.80
74488;DHT22;63019;51.080;13.642;2022-09-03T03:54:57;11.80;67.90
74488;DHT22;63019;51.080;13.642;2022-09-03T03:56:02;11.80;68.10
74488;DHT22;63019;51.080;13.642;2022-09-03T03:57:04;11.80;67.80
74488;DHT22;63019;51.080;13.642;2022-09-03T03:58:05;11.80;67.90
74488;DHT22;63019;51.080;13.642;2022-09-03T03:59:07;11.80;67.80
74488;DHT22;63019;51.080;13.642;2022-09-03T04:00:09;11.90;67.50
74488;DHT22;63019;51.080;13.642;2022-09-03T04:01:19;11.90;68.70
74488;DHT22;63019;51.080;13.642;2022-09-03T04:02:21;11.80;68.00
74488;DHT22;63019;51.080;13.642;2022-09-03T04:03:23;11.80;67.80
74488;DHT22;63019;51.080;13.642;2022-09-03T04:04:25;11.80;68.10
74488;DHT22;63019;51.080;13.642;2022-09-03T04:05:27;11.80;68.40
74488;DHT22;63019;51.080;13.642;2022-09-03T04:06:34;11.80;67.90
74488;DHT22;63019;51.080;13.642;2022-09-03T04:07:35;11.80;67.90
74488;DHT22;63019;51.080;13.642;2022-09-03T04:08:40;11.80;67.70
74488;DHT22;63019;51.080;13.642;2022-09-03T04:09:42;11.80;67.40
74488;DHT22;63019;51.080;13.642;2022-09-03T04:10:44;11.80;67.40
74488;DHT22;63019;51.080;13.642;2022-09-03T04:11:45;11.70;67.30
74488;DHT22;63019;51.080;13.642;2022-09-03T04:12:47;11.80;66.90
74488;DHT22;63019;51.080;13.642;2022-09-03T04:13:49;11.70;66.50
74488;DHT22;63019;51.080;13.642;2022-09-03T04:14:51;11.70;66.80
74488;DHT22;63019;51.080;13.642;2022-09-03T04:16:02;11.70;67.00
74488;DHT22;63019;51.080;13.642;2022-09-03T04:17:04;11.70;66.80
74488;DHT22;63019;51.080;13.642;2022-09-03T04:18:06;11.60;66.80
74488;DHT22;63019;51.080;13.642;2022-09-03T04:19:08;11.70;66.50
74488;DHT22;63019;51.080;13.642;2022-09-03T04:20:10;11.70;66.80
74488;DHT22;63019;51.080;13.642;2022-09-03T04:21:15;11.70;66.70
74488;DHT22;63019;51.080;13.642;2022-09-03T04:22:17;11.70;66.60
74488;DHT22;63019;51.080;13.642;2022-09-03T04:23:20;11.70;67.40
74488;DHT22;63019;51.080;13.642;2022-09-03T04:24:22;11.60;66.80
74488;DHT22;63019;51.080;13.642;2022-09-03T04:25:24;11.60;66.70
74488;DHT22;63019;51.080;13.642;2022-09-03T04:26:30;11.60;66.80
74488;DHT22;63019;51.080;13.642;2022-09-03T04:27:32;11.60;67.10
74488;DHT22;63019;51.080;13.642;2022-09-03T04:28:35;11.60;66.90
74488;DHT22;63019;51.080;13.642;2022-09-03T04:29:37;11.60;67.00
74488;DHT22;63019;51.080;13.642;2022-09-03T04:30:39;11.60;67.00
74488;DHT22;63019;51.080;13.642;2022-09-03T04:31:41;11.60;66.70
74488;DHT22;63019;51.080;13.642;2022-09-03T04:33:06;11.60;67.50
74488;DHT22;63019;51.080;13.642;2022-09-03T04:34:16;11.60;67.20
74488;DHT22;63019;51.080;13.642;2022-09-03T04:35:22;11.60;67.20
74488;DHT22;63019;51.080;13.642;2022-09-03T04:36:26;11.60;67.80
74488;DHT22;63019;51.080;13.642;2022-09-03T04:37:28;11.60;67.60
74488;DHT22;63019;51.080;13.642;2022-09-03T04:38:35;11.60;67.60
74488;DHT22;63019;51.080;13.642;2022-09-03T04:39:37;11.60;68.20
74488;DHT22;63019;51.080;13.642;2022-09-03T04:40:38;11.60;67.40
74488;DHT22;63019;51.080;13.642;2022-09-03T04:41:40;11.60;67.20
74488;DHT22;63019;51.080;13.642;2022-09-03T04:42:42;11.60;68.00
74488;DHT22;63019;51.080;13.642;2022-09-03T04:43:44;11.60;67.40
74488;DHT22;63019;51.080;13.642;2022-09-03T04:44:51;11.60;66.80
74488;DHT22;63019;51.080;13.642;2022-09-03T04:45:58;11.60;67.40
74488;DHT22;63019;51.080;13.642;2022-09-03T04:47:00;11.60;67.60
74488;DHT22;63019;51.080;13.642;2022-09-03T04:48:02;11.60;67.40
74488;DHT22;63019;51.080;13.642;2022-09-03T04:49:04;11.60;67.20
74488;DHT22;63019;51.080;13.642;2022-09-03T04:50:09;11.60;67.10
74488;DHT22;63019;51.080;13.642;2022-09-03T04:51:14;11.60;68.00
74488;DHT22;63019;51.080;13.642;2022-09-03T04:52:16;11.60;68.30
74488;DHT22;63019;51.080;13.642;2022-09-03T04:53:18;11.60;68.10
74488;DHT22;63019;51.080;13.642;2022-09-03T04:54:20;11.60;67.90
74488;DHT22;63019;51.080;13.642;2022-09-03T04:55:21;11.60;67.90
74488;DHT22;63019;51.080;13.642;2022-09-03T04:56:25;11.60;68.00
74488;DHT22;63019;51.080;13.642;2022-09-03T04:57:28;11.60;67.80
74488;DHT22;63019;51.080;13.642;2022-09-03T04:58:34;11.60;67.90
74488;DHT22;63019;51.080;13.642;2022-09-03T04:59:38;11.60;67.60
74488;DHT22;63019;51.080;13.642;2022-09-03T05:00:41;11.70;67.60
74488;DHT22;63019;51.080;13.642;2022-09-03T05:01:43;11.70;67.60
74488;DHT22;63019;51.080;13.642;2022-09-03T05:02:45;11.70;67.70
74488;DHT22;63019;51.080;13.642;2022-09-03T05:03:52;11.60;68.20
74488;DHT22;63019;51.080;13.642;2022-09-03T05:04:54;11.70;67.60
74488;DHT22;63019;51.080;13.642;2022-09-03T05:05:59;11.70;67.80
74488;DHT22;63019;51.080;13.642;2022-09-03T05:07:01;11.60;68.00
74488;DHT22;63019;51.080;13.642;2022-09-03T05:08:03;11.70;68.00
74488;DHT22;63019;51.080;13.642;2022-09-03T05:09:05;11.70;67.60
74488;DHT22;63019;51.080;13.642;2022-09-03T05:10:08;11.70;67.40
74488;DHT22;63019;51.080;13.642;2022-09-03T05:11:13;11.70;67.60
74488;DHT22;63019;51.080;13.642;2022-09-03T05:12:15;11.70;67.90
74488;DHT22;63019;51.080;13.642;2022-09-03T05:13:18;11.70;67.40
74488;DHT22;63019;51.080;13.642;2022-09-03T05:14:19;11.80;68.30
74488;DHT22;63019;51.080;13.642;2022-09-03T05:15:21;11.80;67.40
74488;DHT22;63019;51.080;13.642;2022-09-03T05:16:24;11.80;67.40
74488;DHT22;63019;51.080;13.642;2022-09-03T05:17:26;11.80;67.40
74488;DHT22;63019;51.080;13.642;2022-09-03T05:18:28;11.80;67.60
74488;DHT22;63019;51.080;13.642;2022-09-03T05:19:30;11.80;67.80
74488;DHT22;63019;51.080;13.642;2022-09-03T05:20:32;11.90;67.50
74488;DHT22;63019;51.080;13.642;2022-09-03T05:21:34;11.90;67.70
74488;DHT22;63019;51.080;13.642;2022-09-03T05:22:36;11.90;67.40
74488;DHT22;63019;51.080;13.642;2022-09-03T05:23:40;11.90;67.60
74488;DHT22;63019;51.080;13.642;2022-09-03T05:24:43;11.90;67.50
74488;DHT22;63019;51.080;13.642;2022-09-03T05:25:57;12.00;67.70
74488;DHT22;63019;51.080;13.642;2022-09-03T05:26:59;12.00;67.70
74488;DHT22;63019;51.080;13.642;2022-09-03T05:28:01;12.00;67.80
74488;DHT22;63019;51.080;13.642;2022-09-03T05:29:05;12.10;67.90
74488;DHT22;63019;51.080;13.642;2022-09-03T05:30:11;12.10;67.90
74488;DHT22;63019;51.080;13.642;2022-09-03T05:31:15;12.00;68.30
74488;DHT22;63019;51.080;13.642;2022-09-03T05:32:17;12.00;68.60
74488;DHT22;63019;51.080;13.642;2022-09-03T05:33:19;12.10;68.50
74488;DHT22;63019;51.080;13.642;2022-09-03T05:34:24;12.00;68.30
74488;DHT22;63019;51.080;13.642;2022-09-03T05:35:26;12.10;68.30
74488;DHT22;63019;51.080;13.642;2022-09-03T05:36:33;12.10;68.20
74488;DHT22;63019;51.080;13.642;2022-09-03T05:37:35;12.10;68.00
74488;DHT22;63019;51.080;13.642;2022-09-03T05:38:38;12.10;68.20
74488;DHT22;63019;51.080;13.642;2022-09-03T05:39:40;12.20;68.50
74488;DHT22;63019;51.080;13.642;2022-09-03T05:40:41;12.20;68.30
74488;DHT22;63019;51.080;13.642;2022-09-03T05:41:43;12.20;68.20
74488;DHT22;63019;51.080;13.642;2022-09-03T05:42:45;12.20;67.90
74488;DHT22;63019;51.080;13.642;2022-09-03T05:43:52;12.20;68.30
74488;DHT22;63019;51.080;13.642;2022-09-03T05:44:57;12.30;68.10
74488;DHT22;63019;51.080;13.642;2022-09-03T05:46:13;12.30;67.50
74488;DHT22;63019;51.080;13.642;2022-09-03T05:47:17;12.30;67.70
74488;DHT22;63019;51.080;13.642;2022-09-03T05:48:19;12.30;67.30
74488;DHT22;63019;51.080;13.642;2022-09-03T05:49:21;12.40;67.40
74488;DHT22;63019;51.080;13.642;2022-09-03T05:50:23;12.40;67.60
74488;DHT22;63019;51.080;13.642;2022-09-03T05:51:25;12.40;67.00
74488;DHT22;63019;51.080;13.642;2022-09-03T05:52:27;12.40;66.80
74488;DHT22;63019;51.080;13.642;2022-09-03T05:53:29;12.50;66.70
74488;DHT22;63019;51.080;13.642;2022-09-03T05:54:34;12.50;66.90
74488;DHT22;63019;51.080;13.642;2022-09-03T05:55:36;12.50;66.70
74488;DHT22;63019;51.080;13.642;2022-09-03T05:56:38;12.60;66.50
74488;DHT22;63019;51.080;13.642;2022-09-03T05:57:41;12.60;66.20
74488;DHT22;63019;51.080;13.642;2022-09-03T05:58:45;12.60;66.20
74488;DHT22;63019;51.080;13.642;2022-09-03T05:59:48;12.60;66.30
74488;DHT22;63019;51.080;13.642;2022-09-03T06:00:50;12.60;65.50
74488;DHT22;63019;51.080;13.642;2022-09-03T06:01:53;12.70;66.00
74488;DHT22;63019;51.080;13.642;2022-09-03T06:02:59;12.70;66.10
74488;DHT22;63019;51.080;13.642;2022-09-03T06:04:06;12.70;65.70
74488;DHT22;63019;51.080;13.642;2022-09-03T06:05:08;12.70;65.40
74488;DHT22;63019;51.080;13.642;2022-09-03T06:06:10;12.70;65.70
74488;DHT22;63019;51.080;13.642;2022-09-03T06:07:14;12.70;64.80
74488;DHT22;63019;51.080;13.642;2022-09-03T06:08:16;12.70;65.10
74488;DHT22;63019;51.080;13.642;2022-09-03T06:09:20;12.70;65.10
74488;DHT22;63019;51.080;13.642;2022-09-03T06:10:24;12.80;64.90
74488;DHT22;63019;51.080;13.642;2022-09-03T06:11:34;12.80;65.10
74488;DHT22;63019;51.080;13.642;2022-09-03T06:12:44;12.80;64.60
74488;DHT22;63019;51.080;13.642;2022-09-03T06:13:50;12.80;64.60
74488;DHT22;63019;51.080;13.642;2022-09-03T06:14:51;12.80;64.40
74488;DHT22;63019;51.080;13.642;2022-09-03T06:16:01;12.90;64.20
74488;DHT22;63019;51.080;13.642;2022-09-03T06:17:03;12.90;64.10
74488;DHT22;63019;51.080;13.642;2022-09-03T06:18:05;12.90;62.90
74488;DHT22;63019;51.080;13.642;2022-09-03T06:19:08;12.90;62.90
74488;DHT22;63019;51.080;13.642;2022-09-03T06:20:11;12.90;63.20
74488;DHT22;63019;51.080;13.642;2022-09-03T06:21:13;13.00;62.90
74488;DHT22;63019;51.080;13.642;2022-09-03T06:22:15;13.00;63.30
74488;DHT22;63019;51.080;13.642;2022-09-03T06:23:17;13.10;63.30
74488;DHT22;63019;51.080;13.642;2022-09-03T06:24:20;13.20;62.90
74488;DHT22;63019;51.080;13.642;2022-09-03T06:25:29;13.20;62.50
74488;DHT22;63019;51.080;13.642;2022-09-03T06:26:30;13.20;62.60
74488;DHT22;63019;51.080;13.642;2022-09-03T06:27:32;13.20;62.70
74488;DHT22;63019;51.080;13.642;2022-09-03T06:28:37;13.30;62.50
74488;DHT22;63019;51.080;13.642;2022-09-03T06:29:38;13.30;62.70
74488;DHT22;63019;51.080;13.642;2022-09-03T06:30:40;13.40;63.00
74488;DHT22;63019;51.080;13.642;2022-09-03T06:31:42;13.40;62.60
74488;DHT22;63019;51.080;13.642;2022-09-03T06:32:45;13.50;62.80
74488;DHT22;63019;51.080;13.642;2022-09-03T06:33:47;13.50;62.20
74488;DHT22;63019;51.080;13.642;2022-09-03T06:34:49;13.60;62.70
74488;DHT22;63019;51.080;13.642;2022-09-03T06:35:54;13.60;62.50
74488;DHT22;63019;51.080;13.642;2022-09-03T06:36:59;13.70;63.00
74488;DHT22;63019;51.080;13.642;2022-09-03T06:38:00;13.70;62.50
74488;DHT22;63019;51.080;13.642;2022-09-03T06:39:02;13.80;62.30
74488;DHT22;63019;51.080;13.642;2022-09-03T06:40:05;13.80;62.00
74488;DHT22;63019;51.080;13.642;2022-09-03T06:41:15;13.90;63.40
74488;DHT22;63019;51.080;13.642;2022-09-03T06:42:21;14.00;62.70
74488;DHT22;63019;51.080;13.642;2022-09-03T06:43:23;14.10;61.70
74488;DHT22;63019;51.080;13.642;2022-09-03T06:44:25;14.20;61.10
74488;DHT22;63019;51.080;13.642;2022-09-03T06:45:27;14.20;60.70
74488;DHT22;63019;51.080;13.642;2022-09-03T06:46:31;14.30;61.00
74488;DHT22;63019;51.080;13.642;2022-09-03T06:47:34;14.30;60.50
74488;DHT22;63019;51.080;13.642;2022-09-03T06:48:36;14.40;60.60
74488;DHT22;63019;51.080;13.642;2022-09-03T06:49:39;14.40;61.50
74488;DHT22;63019;51.080;13.642;2022-09-03T06:50:41;14.50;60.70
74488;DHT22;63019;51.080;13.642;2022-09-03T06:51:43;14.50;60.50
74488;DHT22;63019;51.080;13.642;2022-09-03T06:52:52;14.50;60.30
74488;DHT22;63019;51.080;13.642;2022-09-03T06:54:00;14.60;59.60
74488;DHT22;63019;51.080;13.642;2022-09-03T06:55:03;14.70;59.80
74488;DHT22;63019;51.080;13.642;2022-09-03T06:56:09;14.70;60.00
74488;DHT22;63019;51.080;13.642;2022-09-03T06:57:11;14.80;60.10
74488;DHT22;63019;51.080;13.642;2022-09-03T06:58:13;14.90;59.80
74488;DHT22;63019;51.080;13.642;2022-09-03T06:59:16;15.00;58.70
74488;DHT22;63019;51.080;13.642;2022-09-03T07:00:18;15.10;59.30
74488;DHT22;63019;51.080;13.642;2022-09-03T07:01:24;15.10;58.80
74488;DHT22;63019;51.080;13.642;2022-09-03T07:02:26;15.20;58.50
74488;DHT22;63019;51.080;13.642;2022-09-03T07:03:28;15.20;58.70
74488;DHT22;63019;51.080;13.642;2022-09-03T07:04:30;15.20;58.30
74488;DHT22;63019;51.080;13.642;2022-09-03T07:05:36;15.20;58.20
74488;DHT22;63019;51.080;13.642;2022-09-03T07:06:39;15.30;58.50
74488;DHT22;63019;51.080;13.642;2022-09-03T07:07:42;15.30;58.90
74488;DHT22;63019;51.080;13.642;2022-09-03T07:08:46;15.40;58.60
74488;DHT22;63019;51.080;13.642;2022-09-03T07:09:48;15.40;58.90
74488;DHT22;63019;51.080;13.642;2022-09-03T07:10:50;15.50;57.90
74488;DHT22;63019;51.080;13.642;2022-09-03T07:11:52;15.60;58.20
74488;DHT22;63019;51.080;13.642;2022-09-03T07:12:53;15.70;57.60
74488;DHT22;63019;51.080;13.642;2022-09-03T07:13:57;15.70;55.90
74488;DHT22;63019;51.080;13.642;2022-09-03T07:14:59;15.80;55.30
74488;DHT22;63019;51.080;13.642;2022-09-03T07:16:03;15.80;56.70
74488;DHT22;63019;51.080;13.642;2022-09-03T07:17:05;15.80;57.20
74488;DHT22;63019;51.080;13.642;2022-09-03T07:18:07;15.90;57.10
74488;DHT22;63019;51.080;13.642;2022-09-03T07:19:09;16.00;57.00
74488;DHT22;63019;51.080;13.642;2022-09-03T07:20:11;16.10;57.10
74488;DHT22;63019;51.080;13.642;2022-09-03T07:21:15;16.20;57.20
74488;DHT22;63019;51.080;13.642;2022-09-03T07:22:17;16.20;56.10
74488;DHT22;63019;51.080;13.642;2022-09-03T07:23:19;16.30;54.90
74488;DHT22;63019;51.080;13.642;2022-09-03T07:24:21;16.30;55.00
74488;DHT22;63019;51.080;13.642;2022-09-03T07:25:23;16.40;54.90
74488;DHT22;63019;51.080;13.642;2022-09-03T07:26:28;16.30;56.00
74488;DHT22;63019;51.080;13.642;2022-09-03T07:27:30;16.30;56.30
74488;DHT22;63019;51.080;13.642;2022-09-03T07:28:35;16.30;56.20
74488;DHT22;63019;51.080;13.642;2022-09-03T07:29:37;16.40;56.10
74488;DHT22;63019;51.080;13.642;2022-09-03T07:30:38;16.40;56.20
74488;DHT22;63019;51.080;13.642;2022-09-03T07:31:41;16.50;56.30
74488;DHT22;63019;51.080;13.642;2022-09-03T07:32:44;16.50;56.50
74488;DHT22;63019;51.080;13.642;2022-09-03T07:33:47;16.60;56.60